Time;durP1;ratioP1;P1;durP2;ratioP2;P2;SDS_P1;SDS_P2;PMS_P1;PMS_P2;Temp;Humidity;BMP_temperature;BMP_pressure;BME280_temperature;BME280_humidity;BME280_pressure;Samples;Min_cycle;Max_cycle;Signal;HPM_P1;HPM_P2
2021/12/17 07:11:34;;;;;;;47.83;26.20;;;5.50;99.90;;;;;;4916040;29;20580;-82
2021/12/17 07:17:57;;;;;;;52.38;28.08;;;5.50;99.90;;;;;;4916754;29;20564;-83
2021/12/17 07:35:46;;;;;;;55.13;28.13;;;5.40;99.90;;;;;;4896043;29;20128;-85
2021/12/17 07:41:03;;;;;;;51.88;26.33;;;5.50;99.90;;;;;;4914023;29;20477;-84
2021/12/17 07:43:38;;;;;;;50.08;26.83;;;5.40;99.90;;;;;;4914471;29;20040;-84
2021/12/17 07:46:11;;;;;;;54.17;27.70;;;5.50;99.90;;;;;;4915095;29;20532;-84
2021/12/17 07:48:39;;;;;;;50.00;27.50;;;5.50;99.90;;;;;;4908002;29;20101;-84
2021/12/17 07:51:09;;;;;;;53.78;26.65;;;5.50;99.90;;;;;;4895918;29;20588;-83
2021/12/17 07:53:38;;;;;;;46.53;26.60;;;5.50;99.90;;;;;;4896888;29;20120;-83
2021/12/17 07:56:07;;;;;;;50.85;27.17;;;5.50;99.90;;;;;;4911299;29;20059;-86
2021/12/17 07:58:35;;;;;;;52.80;25.75;;;5.50;99.90;;;;;;4908925;29;20524;-84
2021/12/17 08:01:03;;;;;;;46.70;25.77;;;5.50;99.90;;;;;;4900340;29;20056;-82
2021/12/17 08:03:30;;;;;;;49.42;27.15;;;5.50;99.90;;;;;;4880793;29;20115;-84
2021/12/17 08:05:58;;;;;;;53.70;27.52;;;5.50;99.90;;;;;;4913283;29;20108;-85
2021/12/17 08:08:25;;;;;;;55.50;27.42;;;5.50;99.90;;;;;;4914018;29;20067;-85
2021/12/17 08:10:52;;;;;;;44.60;25.65;;;5.50;99.90;;;;;;4914853;29;20516;-85
2021/12/17 08:13:22;;;;;;;49.35;27.05;;;5.50;99.90;;;;;;4903071;29;20553;-85
2021/12/17 08:16:05;;;;;;;53.08;27.67;;;5.50;99.90;;;;;;4904215;29;20108;-85
2021/12/17 08:31:34;;;;;;;46.13;24.92;;;5.60;99.90;;;;;;4913406;29;19923;-85
2021/12/17 08:34:04;;;;;;;55.35;26.63;;;5.70;99.90;;;;;;4914466;29;20044;-85
2021/12/17 08:36:32;;;;;;;48.03;26.50;;;5.70;99.90;;;;;;4913821;29;20091;-85
2021/12/17 08:38:59;;;;;;;53.83;26.90;;;5.80;99.90;;;;;;4913150;29;20067;-85
2021/12/17 08:41:27;;;;;;;52.63;27.02;;;5.80;99.90;;;;;;4911076;29;20381;-85
2021/12/17 08:43:56;;;;;;;47.27;26.10;;;5.90;99.90;;;;;;4898151;29;20064;-85
2021/12/17 08:46:24;;;;;;;46.85;25.90;;;5.90;99.90;;;;;;4906492;29;20494;-86
2021/12/17 08:48:52;;;;;;;46.65;25.83;;;5.90;99.90;;;;;;4894263;29;20056;-86
2021/12/17 08:51:19;;;;;;;45.70;25.08;;;6.00;99.90;;;;;;4898863;29;20036;-85
2021/12/17 08:53:49;;;;;;;44.50;24.17;;;6.00;99.90;;;;;;4896262;29;20060;-84
2021/12/17 08:56:20;;;;;;;47.25;25.90;;;6.10;99.90;;;;;;4910422;29;20060;-84
2021/12/17 08:58:49;;;;;;;45.30;26.08;;;6.20;99.90;;;;;;4903540;29;20105;-82
2021/12/17 09:01:17;;;;;;;46.70;26.00;;;6.20;99.90;;;;;;4907333;29;20118;-84
2021/12/17 09:03:45;;;;;;;54.38;26.65;;;6.30;99.90;;;;;;4910414;29;20107;-85
2021/12/17 09:06:17;;;;;;;51.33;26.88;;;6.30;99.90;;;;;;4903344;29;20555;-84
2021/12/17 09:08:44;;;;;;;47.70;25.75;;;6.40;99.90;;;;;;4889415;29;20060;-85
2021/12/17 09:11:16;;;;;;;45.30;24.92;;;6.40;99.90;;;;;;4888911;29;20552;-86
2021/12/17 09:13:44;;;;;;;45.85;26.65;;;6.50;99.90;;;;;;4882598;29;20056;-85
2021/12/17 09:16:11;;;;;;;44.53;24.60;;;6.60;99.90;;;;;;4903631;29;20051;-85
2021/12/17 09:18:38;;;;;;;48.90;25.33;;;6.60;99.90;;;;;;4890886;29;20048;-83
2021/12/17 09:21:05;;;;;;;46.92;24.23;;;6.70;99.90;;;;;;4908736;29;20811;-86
2021/12/17 09:23:32;;;;;;;43.55;25.33;;;6.70;99.90;;;;;;4894549;29;20048;-88
2021/12/17 09:25:59;;;;;;;44.63;24.45;;;6.80;99.90;;;;;;4889294;29;20101;-87
2021/12/17 09:28:26;;;;;;;45.22;25.13;;;6.90;99.90;;;;;;4909448;29;20523;-88
2021/12/17 09:30:54;;;;;;;39.20;23.33;;;6.90;99.90;;;;;;4894058;29;20501;-87
2021/12/17 09:33:20;;;;;;;43.08;24.92;;;7.00;99.90;;;;;;4912443;29;20052;-89
2021/12/17 09:35:47;;;;;;;42.35;23.60;;;7.10;99.90;;;;;;4898678;29;20048;-89
2021/12/17 09:38:14;;;;;;;40.53;23.95;;;7.20;99.90;;;;;;4914375;29;20120;-88
2021/12/17 09:40:42;;;;;;;40.63;24.17;;;7.20;99.90;;;;;;4895663;29;20103;-88
2021/12/17 09:43:10;;;;;;;39.87;22.37;;;7.30;99.90;;;;;;4897438;29;20048;-87
2021/12/17 09:45:37;;;;;;;35.47;21.48;;;7.40;99.90;;;;;;4896782;29;20593;-86
2021/12/17 09:48:04;;;;;;;40.15;22.08;;;7.50;99.90;;;;;;4882059;29;20390;-84
2021/12/17 09:50:31;;;;;;;41.15;22.95;;;7.50;99.90;;;;;;4892240;29;20119;-88
2021/12/17 09:52:58;;;;;;;38.78;22.17;;;7.60;99.90;;;;;;4893804;29;20126;-86
2021/12/17 09:55:26;;;;;;;37.75;23.02;;;7.70;99.90;;;;;;4905229;29;20065;-85
2021/12/17 09:57:54;;;;;;;37.22;21.70;;;7.80;99.90;;;;;;4887251;29;20097;-84
2021/12/17 10:00:26;;;;;;;36.10;22.52;;;7.90;99.90;;;;;;4904941;29;20414;-85
2021/12/17 10:02:58;;;;;;;35.00;21.05;;;7.90;99.90;;;;;;4911420;29;20055;-84
2021/12/17 10:05:34;;;;;;;40.92;21.52;;;8.00;99.90;;;;;;4903179;29;20082;-85
2021/12/17 10:08:05;;;;;;;32.42;21.27;;;8.10;99.90;;;;;;4908670;29;20123;-85
2021/12/17 10:10:44;;;;;;;35.92;20.08;;;8.20;99.90;;;;;;4910058;29;20056;-86
2021/12/17 10:13:15;;;;;;;31.58;19.80;;;8.20;99.90;;;;;;4909898;29;20044;-85
2021/12/17 10:15:46;;;;;;;34.83;19.63;;;8.30;99.90;;;;;;4906543;29;20043;-84
2021/12/17 10:18:14;;;;;;;32.03;19.20;;;8.40;99.90;;;;;;4898171;29;20059;-85
2021/12/17 10:20:51;;;;;;;30.40;18.15;;;8.50;99.90;;;;;;4915567;29;20052;-85
2021/12/17 10:23:22;;;;;;;25.27;17.58;;;8.50;99.90;;;;;;4898148;29;20048;-85
2021/12/17 10:25:50;;;;;;;28.60;18.33;;;8.60;99.90;;;;;;4910484;29;20143;-85
2021/12/17 10:28:17;;;;;;;28.08;18.17;;;8.70;99.90;;;;;;4903445;29;20051;-85
2021/12/17 10:30:50;;;;;;;29.60;18.33;;;8.70;99.90;;;;;;4894447;29;20063;-86
2021/12/17 10:33:24;;;;;;;25.05;18.05;;;8.80;99.90;;;;;;4909969;29;20115;-85
2021/12/17 10:35:53;;;;;;;28.92;18.10;;;8.90;99.90;;;;;;4908230;29;20385;-84
2021/12/17 10:38:24;;;;;;;27.45;17.92;;;8.90;99.90;;;;;;4898158;29;20498;-85
2021/12/17 10:41:04;;;;;;;30.17;18.33;;;9.00;99.90;;;;;;4912038;29;20537;-86
2021/12/17 10:43:36;;;;;;;25.67;17.38;;;9.00;99.90;;;;;;4897739;29;20111;-87
2021/12/17 10:46:29;;;;;;;25.42;16.67;;;9.10;99.90;;;;;;4913749;29;20044;-87
2021/12/17 10:54:11;;;;;;;26.27;15.75;;;9.30;99.90;;;;;;4906201;29;20070;-86
2021/12/17 10:56:42;;;;;;;22.08;15.10;;;9.30;99.90;;;;;;4895973;29;20103;-85
2021/12/17 10:59:15;;;;;;;21.35;14.65;;;9.40;99.90;;;;;;4873644;29;20060;-84
2021/12/17 11:01:55;;;;;;;23.88;14.00;;;9.50;99.90;;;;;;4905990;29;20048;-85
2021/12/17 11:04:29;;;;;;;24.45;14.82;;;9.50;99.90;;;;;;4908093;29;20088;-83
2021/12/17 11:07:02;;;;;;;22.00;14.35;;;9.60;99.90;;;;;;4907146;29;20516;-83
2021/12/17 11:09:47;;;;;;;18.33;12.68;;;9.60;99.90;;;;;;4900851;29;20931;-82
2021/12/17 11:12:25;;;;;;;19.70;12.05;;;9.60;99.90;;;;;;4893403;29;20438;-83
2021/12/17 11:14:56;;;;;;;21.63;12.55;;;9.70;99.90;;;;;;4893390;29;20108;-83
2021/12/17 11:17:23;;;;;;;18.02;12.88;;;9.80;99.90;;;;;;4909316;29;20671;-84
2021/12/17 11:20:12;;;;;;;18.30;12.25;;;9.80;99.90;;;;;;4897837;29;20433;-85
2021/12/17 11:22:44;;;;;;;16.63;11.10;;;9.90;99.90;;;;;;4919604;29;20043;-85
2021/12/17 11:25:12;;;;;;;19.10;11.30;;;9.90;99.90;;;;;;4912850;29;20156;-84
2021/12/17 11:27:39;;;;;;;16.98;11.27;;;10.00;99.90;;;;;;4911048;29;20092;-85
2021/12/17 11:30:10;;;;;;;17.98;11.50;;;10.00;99.90;;;;;;4910703;29;20052;-85
2021/12/17 11:32:37;;;;;;;14.95;10.40;;;10.00;99.90;;;;;;4907229;29;20472;-85
2021/12/17 11:35:06;;;;;;;14.52;9.82;;;10.10;99.90;;;;;;4908671;29;20056;-85
2021/12/17 11:37:34;;;;;;;14.05;9.85;;;10.10;99.90;;;;;;4907584;29;20067;-86
2021/12/17 11:40:07;;;;;;;14.82;9.10;;;10.20;99.90;;;;;;4893701;29;20058;-85
2021/12/17 11:42:58;;;;;;;15.32;9.70;;;10.20;99.90;;;;;;4909060;29;20051;-82
2021/12/17 11:45:27;;;;;;;15.38;9.63;;;10.30;99.90;;;;;;4903205;29;20103;-82
2021/12/17 11:48:19;;;;;;;13.30;9.52;;;10.40;99.90;;;;;;4908086;29;20057;-82
2021/12/17 11:51:01;;;;;;;13.90;9.07;;;10.40;99.90;;;;;;4911123;29;20501;-83
2021/12/17 11:53:31;;;;;;;13.82;9.40;;;10.50;99.90;;;;;;4896276;29;20595;-83
2021/12/17 11:56:02;;;;;;;12.48;8.68;;;10.50;99.90;;;;;;4907416;29;20517;-82
2021/12/17 11:58:51;;;;;;;14.23;9.15;;;10.60;99.90;;;;;;4909915;29;20047;-82
2021/12/17 12:01:59;;;;;;;12.43;9.18;;;10.60;99.90;;;;;;4903578;28;20051;-88
2021/12/17 12:04:32;;;;;;;12.40;8.45;;;10.60;99.90;;;;;;4927695;28;20052;-85
2021/12/17 12:07:14;;;;;;;12.93;8.57;;;10.70;99.90;;;;;;4928887;28;20107;-85
2021/12/17 12:09:59;;;;;;;13.73;8.82;;;10.80;99.90;;;;;;4934256;28;20080;-84
2021/12/17 12:12:28;;;;;;;14.45;8.13;;;10.80;99.90;;;;;;4924034;28;20442;-84
2021/12/17 12:15:15;;;;;;;;;;;10.80;99.90;;;;;;4929298;29;20052;-84
2021/12/17 12:17:58;;;;;;;11.98;8.55;;;10.90;99.90;;;;;;4930372;28;20380;-87
2021/12/17 12:20:52;;;;;;;14.48;8.60;;;10.90;99.90;;;;;;4922879;28;22247;-85
2021/12/17 12:23:37;;;;;;;11.43;8.90;;;10.90;99.90;;;;;;4929449;28;20055;-86
2021/12/17 12:26:04;;;;;;;13.85;7.95;;;11.00;99.90;;;;;;4933108;28;20111;-84
2021/12/17 12:31:26;;;;;;;10.98;8.02;;;11.00;99.90;;;;;;4925864;28;20070;-86
2021/12/17 12:36:48;;;;;;;16.63;8.43;;;11.10;99.90;;;;;;4929442;28;20048;-86
2021/12/17 12:39:32;;;;;;;11.38;7.55;;;11.10;99.90;;;;;;4918495;28;20048;-85
2021/12/17 12:42:06;;;;;;;11.63;8.25;;;11.10;99.90;;;;;;4926817;28;20044;-84
2021/12/17 12:44:39;;;;;;;12.07;8.23;;;11.20;99.90;;;;;;4929874;28;20058;-84
2021/12/17 12:47:27;;;;;;;10.25;7.43;;;11.20;99.90;;;;;;4936320;28;20047;-84
2021/12/17 12:50:02;;;;;;;10.63;7.55;;;11.20;99.90;;;;;;4919857;28;20063;-86
2021/12/17 12:52:40;;;;;;;13.50;7.72;;;11.20;99.90;;;;;;4923328;28;20060;-84
2021/12/17 12:55:15;;;;;;;11.05;8.38;;;11.20;99.90;;;;;;4927095;29;20051;-84
2021/12/17 12:57:43;;;;;;;12.43;7.30;;;11.30;99.90;;;;;;4929796;29;20060;-85
2021/12/17 13:00:14;;;;;;;10.40;7.63;;;11.30;99.90;;;;;;4927072;28;20094;-85
2021/12/17 13:02:43;;;;;;;9.38;7.00;;;11.40;99.90;;;;;;4929154;29;20126;-85
2021/12/17 13:05:13;;;;;;;9.90;6.85;;;11.40;99.90;;;;;;4928018;28;20055;-85
2021/12/17 13:07:55;;;;;;;9.02;6.45;;;11.40;99.90;;;;;;4931567;28;20051;-85
2021/12/17 13:10:35;;;;;;;11.73;6.53;;;11.40;99.90;;;;;;4930734;28;20039;-86
2021/12/17 13:13:53;;;;;;;7.55;5.85;;;11.40;99.90;;;;;;4933128;29;20107;-85
2021/12/17 13:24:09;;;;;;;10.55;6.82;;;11.50;99.90;;;;;;4933026;28;20122;-85
2021/12/17 13:26:42;;;;;;;12.40;7.93;;;11.60;99.90;;;;;;4931349;28;20047;-86
2021/12/17 13:29:13;;;;;;;13.25;8.30;;;11.60;99.90;;;;;;4934099;28;20114;-85
2021/12/17 13:31:48;;;;;;;11.75;8.68;;;11.60;99.90;;;;;;4931520;28;20622;-84
2021/12/17 13:34:15;;;;;;;13.55;9.40;;;11.60;99.90;;;;;;4931770;28;20107;-86
2021/12/17 13:36:55;;;;;;;13.10;9.10;;;11.60;99.90;;;;;;4931811;28;20043;-85
2021/12/17 13:39:26;;;;;;;16.33;9.02;;;11.70;99.90;;;;;;4931095;28;20048;-87
2021/12/17 13:41:53;;;;;;;17.98;9.30;;;11.60;99.90;;;;;;4933374;28;20056;-86
2021/12/17 13:44:31;;;;;;;12.73;8.48;;;11.70;99.90;;;;;;4934236;28;20048;-90
2021/12/17 13:47:24;;;;;;;13.57;9.18;;;11.70;99.90;;;;;;4934308;29;20051;-92
2021/12/17 13:50:12;;;;;;;15.88;8.40;;;11.70;99.90;;;;;;4933882;29;20052;-91
2021/12/17 13:52:55;;;;;;;15.52;8.43;;;11.70;99.90;;;;;;4932995;28;20054;-84
2021/12/17 13:55:24;;;;;;;12.43;8.75;;;11.80;99.90;;;;;;4931929;28;20048;-85
2021/12/17 13:57:51;;;;;;;16.40;8.88;;;11.80;99.90;;;;;;4930929;28;20465;-84
2021/12/17 14:00:21;;;;;;;12.65;8.40;;;11.80;99.90;;;;;;4931929;28;20047;-84
2021/12/17 14:02:55;;;;;;;13.82;9.35;;;11.80;99.90;;;;;;4933927;29;20513;-86
2021/12/17 14:05:27;;;;;;;11.18;7.93;;;11.80;99.90;;;;;;4932169;29;20058;-86
2021/12/17 14:07:59;;;;;;;12.68;8.82;;;11.80;99.90;;;;;;4934333;29;20505;-89
2021/12/17 14:10:32;;;;;;;12.02;8.35;;;11.80;99.90;;;;;;4936271;28;20111;-86
2021/12/17 14:12:59;;;;;;;12.63;8.20;;;11.80;99.90;;;;;;4932534;29;20060;-89
2021/12/17 14:15:48;;;;;;;11.47;8.10;;;11.80;99.90;;;;;;4919997;29;20111;-89
2021/12/17 14:18:18;;;;;;;10.98;7.47;;;11.80;99.90;;;;;;4931051;29;20125;-92
2021/12/17 14:20:54;;;;;;;13.85;8.98;;;11.80;99.90;;;;;;4931450;29;20433;-90
2021/12/17 14:23:26;;;;;;;15.95;7.97;;;11.80;99.90;;;;;;4932867;29;20107;-88
2021/12/17 14:26:05;;;;;;;14.75;8.93;;;11.80;99.90;;;;;;4933184;29;20052;-87
2021/12/17 14:28:38;;;;;;;41.55;10.82;;;11.80;99.90;;;;;;4934030;29;20044;-88
2021/12/17 14:31:09;;;;;;;16.58;10.07;;;11.80;99.90;;;;;;4916404;29;20048;-87
2021/12/17 14:33:52;;;;;;;32.25;11.50;;;11.80;99.90;;;;;;4932521;29;20051;-85
2021/12/17 14:36:39;;;;;;;21.10;9.93;;;11.80;99.90;;;;;;4900145;29;20048;-85
2021/12/17 14:39:10;;;;;;;15.07;11.27;;;11.70;99.90;;;;;;4903065;29;20039;-85
2021/12/17 14:41:54;;;;;;;19.40;10.43;;;11.70;99.90;;;;;;4929976;29;20118;-85
2021/12/17 15:00:57;;;;;;;14.07;9.48;;;11.50;99.90;;;;;;4927011;29;20521;-85
2021/12/17 15:03:40;;;;;;;18.52;10.15;;;11.50;99.90;;;;;;4926022;29;20488;-84
2021/12/17 15:06:11;;;;;;;14.15;9.43;;;11.50;99.90;;;;;;4911977;29;20043;-84
2021/12/17 15:08:40;;;;;;;15.32;11.02;;;11.40;99.90;;;;;;4939390;28;20062;-84
2021/12/17 15:11:24;;;;;;;16.35;11.25;;;11.40;99.90;;;;;;4927784;29;20131;-85
2021/12/17 15:13:53;;;;;;;19.25;12.40;;;11.40;99.90;;;;;;4927899;29;20054;-89
2021/12/17 15:16:20;;;;;;;18.55;12.68;;;11.40;99.90;;;;;;4912952;29;20039;-83
2021/12/17 15:18:47;;;;;;;17.00;11.02;;;11.30;99.90;;;;;;4911174;29;20048;-85
2021/12/17 15:21:14;;;;;;;21.70;13.18;;;11.30;99.90;;;;;;4912622;29;20056;-86
2021/12/17 15:23:41;;;;;;;20.65;13.18;;;11.30;99.90;;;;;;4915794;29;20492;-84
2021/12/17 15:26:08;;;;;;;20.52;13.48;;;11.30;99.90;;;;;;4903651;29;20050;-83
2021/12/17 15:28:37;;;;;;;24.13;13.90;;;11.20;99.90;;;;;;4914064;29;20095;-84
2021/12/17 15:31:06;;;;;;;26.83;15.30;;;11.20;99.90;;;;;;4929828;29;20051;-83
2021/12/17 15:33:35;;;;;;;24.25;15.43;;;11.10;99.90;;;;;;4927963;29;20044;-85
2021/12/17 15:36:03;;;;;;;28.83;15.82;;;11.10;99.90;;;;;;4913558;29;20138;-84
2021/12/17 15:38:30;;;;;;;28.55;17.23;;;11.10;99.90;;;;;;4914757;29;20047;-86
2021/12/17 15:40:57;;;;;;;30.90;17.20;;;11.00;99.90;;;;;;4929081;29;20044;-84
2021/12/17 15:43:24;;;;;;;25.92;17.48;;;10.90;99.90;;;;;;4928090;29;22412;-86
2021/12/17 15:45:53;;;;;;;26.45;17.40;;;10.90;99.90;;;;;;4914672;29;20058;-84
2021/12/17 15:48:21;;;;;;;;;;;10.80;99.90;;;;;;4931219;29;20098;-84
2021/12/17 15:51:06;;;;;;;30.40;17.42;;;10.70;99.90;;;;;;4930635;29;20340;-84
2021/12/17 15:53:34;;;;;;;32.67;19.20;;;10.70;99.90;;;;;;4928189;29;20044;-84
2021/12/17 15:56:01;;;;;;;31.98;18.40;;;10.60;99.90;;;;;;4915150;29;20453;-87
2021/12/17 15:58:28;;;;;;;34.30;20.17;;;10.50;99.90;;;;;;4929417;29;20051;-85
2021/12/17 16:01:00;;;;;;;30.48;19.30;;;10.40;99.90;;;;;;4924873;29;20139;-86
2021/12/17 16:03:32;;;;;;;33.42;19.75;;;10.40;99.90;;;;;;4910030;29;20497;-87
2021/12/17 16:06:05;;;;;;;35.58;19.65;;;10.30;99.90;;;;;;4899500;29;20060;-86
2021/12/17 16:08:58;;;;;;;39.25;22.23;;;10.20;99.90;;;;;;4911112;29;20103;-86
2021/12/17 16:11:53;;;;;;;36.30;21.73;;;10.20;99.90;;;;;;4895628;29;20465;-84
2021/12/17 16:23:04;;;;;;;40.33;23.05;;;9.90;99.90;;;;;;4851830;29;20189;-84
2021/12/17 16:25:34;;;;;;;44.28;24.05;;;9.80;99.90;;;;;;4850123;29;20057;-85
2021/12/17 16:28:02;;;;;;;44.92;25.05;;;9.70;99.90;;;;;;4850363;29;20042;-88
2021/12/17 16:30:31;;;;;;;43.50;24.45;;;9.70;99.90;;;;;;4851146;29;20061;-86
2021/12/17 16:32:58;;;;;;;47.20;26.95;;;9.60;99.90;;;;;;4853252;29;20856;-86
2021/12/17 16:35:33;;;;;;;49.67;27.48;;;9.60;99.90;;;;;;4834482;29;20108;-86
2021/12/17 16:38:00;;;;;;;48.00;25.35;;;9.50;99.90;;;;;;4851119;29;20144;-87
2021/12/17 16:40:27;;;;;;;58.15;32.60;;;9.40;99.90;;;;;;4830693;29;20276;-87
2021/12/17 16:42:56;;;;;;;49.17;26.30;;;9.40;99.90;;;;;;4832896;29;20173;-86
2021/12/17 16:45:30;;;;;;;44.70;25.02;;;9.30;99.90;;;;;;4849753;29;20181;-86
2021/12/17 16:48:03;;;;;;;42.13;26.17;;;9.30;99.90;;;;;;4828399;29;20069;-86
2021/12/17 16:50:31;;;;;;;48.65;26.67;;;9.20;99.90;;;;;;4847963;29;20053;-85
2021/12/17 16:53:00;;;;;;;47.60;26.55;;;9.20;99.90;;;;;;4837866;29;20053;-85
2021/12/17 16:55:28;;;;;;;50.05;27.02;;;9.10;99.90;;;;;;4871053;29;20154;-85
2021/12/17 16:57:56;;;;;;;54.72;27.83;;;9.00;99.90;;;;;;4906622;29;20143;-86
2021/12/17 17:00:28;;;;;;;57.47;28.13;;;9.00;99.90;;;;;;4906124;29;20127;-84
2021/12/17 17:02:55;;;;;;;58.97;28.13;;;8.90;99.90;;;;;;4926703;29;20052;-86
2021/12/17 17:05:23;;;;;;;50.38;28.10;;;8.90;99.90;;;;;;4920722;28;20080;-84
2021/12/17 17:07:50;;;;;;;58.00;30.65;;;8.80;99.90;;;;;;4924613;29;20048;-86
2021/12/17 17:10:33;;;;;;;58.10;28.98;;;8.80;99.90;;;;;;4919180;28;20056;-86
2021/12/17 17:13:03;;;;;;;58.20;30.08;;;8.70;99.90;;;;;;4928837;28;20134;-87
2021/12/17 17:15:34;;;;;;;57.40;29.67;;;8.60;99.90;;;;;;4923652;28;20054;-86
2021/12/17 17:18:05;;;;;;;67.65;32.03;;;8.60;99.90;;;;;;4913617;28;20134;-85
2021/12/17 17:20:37;;;;;;;60.38;31.85;;;8.50;99.90;;;;;;4921000;29;20048;-87
2021/12/17 17:23:43;;;;;;;60.92;29.98;;;8.50;99.90;;;;;;4908378;29;20042;-89
2021/12/17 17:26:15;;;;;;;60.33;31.08;;;8.40;99.90;;;;;;4931235;28;20051;-85
2021/12/17 17:28:43;;;;;;;63.53;31.55;;;8.40;99.90;;;;;;4906913;28;20055;-87
2021/12/17 17:32:03;;;;;;;63.83;30.65;;;8.30;99.90;;;;;;4913610;28;20071;-87
2021/12/17 17:34:38;;;;;;;65.78;31.83;;;8.30;99.90;;;;;;4762168;29;20114;-90
2021/12/17 17:37:08;;;;;;;66.90;31.33;;;8.20;99.90;;;;;;4819773;29;20045;-86
2021/12/17 17:39:36;;;;;;;64.20;31.88;;;8.10;99.90;;;;;;4849284;29;20118;-86
2021/12/17 17:42:04;;;;;;;61.70;32.47;;;8.10;99.90;;;;;;4853506;29;20050;-85
2021/12/17 17:44:31;;;;;;;76.90;33.88;;;8.00;99.90;;;;;;4852808;29;20396;-85
2021/12/17 17:46:58;;;;;;;69.80;33.40;;;8.00;99.90;;;;;;4852601;29;20053;-86
2021/12/17 17:49:25;;;;;;;71.20;33.95;;;7.90;99.90;;;;;;4851253;29;20154;-82
2021/12/17 17:51:52;;;;;;;74.05;33.40;;;7.90;99.90;;;;;;4851888;29;20045;-87
2021/12/17 17:54:25;;;;;;;68.68;33.08;;;7.90;99.90;;;;;;4851523;29;20060;-88
2021/12/17 17:56:53;;;;;;;76.35;33.53;;;7.90;99.90;;;;;;4851344;29;20064;-86
2021/12/17 17:59:20;;;;;;;73.78;34.30;;;7.90;99.90;;;;;;4844121;29;20471;-84
2021/12/17 18:01:47;;;;;;;71.95;35.00;;;7.80;99.90;;;;;;4849077;29;20084;-85
2021/12/17 18:04:15;;;;;;;81.78;36.35;;;7.80;99.90;;;;;;4853085;29;20052;-85
2021/12/17 18:06:42;;;;;;;86.22;38.65;;;7.80;99.90;;;;;;4883489;29;20197;-81
2021/12/17 18:09:09;;;;;;;84.15;37.25;;;7.80;99.90;;;;;;4892939;29;20161;-80
2021/12/17 18:11:36;;;;;;;86.97;40.55;;;7.80;99.90;;;;;;4906064;28;20538;-81
2021/12/17 18:14:03;;;;;;;78.32;35.60;;;7.80;99.90;;;;;;4927659;28;20579;-81
2021/12/17 18:16:32;;;;;;;82.30;37.95;;;7.80;99.90;;;;;;4928115;28;20520;-80
2021/12/17 18:18:58;;;;;;;74.40;35.28;;;7.90;99.90;;;;;;4928414;28;20169;-81
2021/12/17 18:21:25;;;;;;;91.55;45.10;;;7.90;99.90;;;;;;4927509;28;20059;-81
2021/12/17 18:23:52;;;;;;;76.75;34.95;;;8.00;99.90;;;;;;4928488;28;20051;-80
2021/12/17 18:26:20;;;;;;;70.68;33.17;;;8.00;99.90;;;;;;4926549;28;20079;-80
2021/12/17 18:28:47;;;;;;;76.10;35.90;;;8.10;99.90;;;;;;4927679;28;20079;-80
2021/12/17 18:31:14;;;;;;;81.70;38.33;;;8.10;99.90;;;;;;4927823;28;20535;-79
2021/12/17 18:33:41;;;;;;;75.82;36.38;;;8.10;99.90;;;;;;4927561;28;20083;-80
2021/12/17 18:36:11;;;;;;;78.32;35.80;;;8.20;99.90;;;;;;4925669;28;20044;-80
2021/12/17 18:38:40;;;;;;;75.85;35.50;;;8.20;99.90;;;;;;4925332;28;20363;-80
2021/12/17 18:41:10;;;;;;;72.05;34.20;;;8.20;99.90;;;;;;4926261;28;20056;-80
2021/12/17 18:46:24;;;;;;;78.70;36.58;;;8.30;99.90;;;;;;4927027;28;20162;-80
2021/12/17 18:48:51;;;;;;;81.22;37.20;;;8.30;99.90;;;;;;4927565;28;20055;-80
2021/12/17 18:51:18;;;;;;;75.55;34.08;;;8.30;99.90;;;;;;4926984;28;20095;-79
2021/12/17 18:54:10;;;;;;;88.13;41.42;;;8.30;99.90;;;;;;4927187;28;20046;-79
2021/12/17 18:57:02;;;;;;;68.97;33.22;;;8.30;99.90;;;;;;4926646;28;20114;-80
2021/12/17 18:59:29;;;;;;;67.57;32.72;;;8.30;99.90;;;;;;4927506;28;20058;-80
2021/12/17 19:01:56;;;;;;;72.93;33.45;;;8.30;99.90;;;;;;4925338;29;20044;-80
2021/12/17 19:04:27;;;;;;;76.95;37.65;;;8.40;99.90;;;;;;4926432;28;20055;-80
2021/12/17 19:06:55;;;;;;;72.00;33.15;;;8.40;99.90;;;;;;4927259;28;20083;-80
2021/12/17 19:09:22;;;;;;;;;;;8.40;99.90;;;;;;4932309;28;20043;-80
2021/12/17 19:11:49;;;;;;;71.57;32.97;;;8.40;99.90;;;;;;4927005;28;19982;-80
2021/12/17 19:14:16;;;;;;;64.90;33.63;;;8.40;99.90;;;;;;4927169;28;20044;-80
2021/12/17 19:16:46;;;;;;;69.63;32.00;;;8.40;99.90;;;;;;4926269;28;20454;-80
2021/12/17 19:19:26;;;;;;;67.53;30.65;;;8.40;99.90;;;;;;4926570;28;20457;-80
2021/12/17 19:24:23;;;;;;;67.32;32.63;;;8.30;99.90;;;;;;4926275;28;20048;-80
2021/12/17 19:26:52;;;;;;;67.97;32.13;;;8.40;99.90;;;;;;4926922;28;20126;-81
2021/12/17 19:29:19;;;;;;;67.93;32.75;;;8.40;99.90;;;;;;4925895;28;20477;-80
2021/12/17 19:31:46;;;;;;;69.10;30.65;;;8.40;99.90;;;;;;4925359;29;20052;-80
2021/12/17 19:34:14;;;;;;;70.13;34.22;;;8.40;99.90;;;;;;4916066;29;20044;-79
2021/12/17 19:36:41;;;;;;;79.00;38.78;;;8.40;99.90;;;;;;4926625;28;20051;-79
2021/12/17 19:39:09;;;;;;;72.25;34.20;;;8.40;99.90;;;;;;4924021;28;20059;-78
2021/12/17 19:41:36;;;;;;;73.82;33.97;;;8.40;99.90;;;;;;4909095;29;20444;-78
2021/12/17 19:44:05;;;;;;;66.78;33.20;;;8.40;99.90;;;;;;4926312;28;20083;-78
2021/12/17 19:46:42;;;;;;;69.15;31.73;;;8.40;99.90;;;;;;4925228;28;20058;-79
2021/12/17 19:51:41;;;;;;;69.28;31.63;;;8.50;99.90;;;;;;4919415;28;20559;-79
2021/12/17 19:54:09;;;;;;;61.72;29.67;;;8.50;99.90;;;;;;4922533;28;20047;-80
2021/12/17 19:56:38;;;;;;;66.93;33.08;;;8.50;99.90;;;;;;4925036;28;20059;-79
2021/12/17 19:59:25;;;;;;;;;;;8.50;99.90;;;;;;4921919;28;20066;-80
2021/12/17 20:01:54;;;;;;;62.05;30.90;;;8.40;99.90;;;;;;4909536;28;20402;-79
2021/12/17 20:04:25;;;;;;;59.25;30.30;;;8.40;99.90;;;;;;4906630;29;20044;-79
2021/12/17 20:06:52;;;;;;;63.45;31.08;;;8.50;99.90;;;;;;4900882;29;20052;-79
2021/12/17 20:09:20;;;;;;;68.15;32.17;;;8.40;99.90;;;;;;4887919;29;20060;-79
2021/12/17 20:11:48;;;;;;;68.17;32.93;;;8.40;99.90;;;;;;4902184;29;20504;-79
2021/12/17 20:14:15;;;;;;;68.00;33.88;;;8.40;99.90;;;;;;4905891;29;20551;-79
2021/12/17 20:16:45;;;;;;;69.93;31.95;;;8.50;99.90;;;;;;4904513;29;20052;-80
2021/12/17 20:19:12;;;;;;;68.30;32.38;;;8.40;99.90;;;;;;4901051;29;20051;-79
2021/12/17 20:21:40;;;;;;;62.55;30.20;;;8.40;99.90;;;;;;4907200;29;20059;-79
2021/12/17 20:24:07;;;;;;;64.30;31.05;;;8.40;99.90;;;;;;4902915;29;20056;-79
2021/12/17 20:26:35;;;;;;;65.68;31.38;;;8.50;99.90;;;;;;4907287;29;20048;-80
2021/12/17 20:29:06;;;;;;;66.20;32.20;;;8.40;99.90;;;;;;4895863;29;20060;-79
2021/12/17 20:31:33;;;;;;;62.45;29.35;;;8.40;99.90;;;;;;4895375;29;20052;-80
2021/12/17 20:34:00;;;;;;;59.63;29.40;;;8.40;99.90;;;;;;4899039;29;20052;-79
2021/12/17 20:36:27;;;;;;;65.82;30.90;;;8.40;99.90;;;;;;4904615;29;20099;-79
2021/12/17 20:38:59;;;;;;;56.10;28.27;;;8.40;99.90;;;;;;4905850;29;20051;-80
2021/12/17 20:41:39;;;;;;;64.53;31.77;;;8.40;99.90;;;;;;4906573;29;20044;-79
2021/12/17 20:44:07;;;;;;;73.90;33.97;;;8.40;99.90;;;;;;4897494;29;20111;-79
2021/12/17 20:46:36;;;;;;;62.63;30.67;;;8.50;99.90;;;;;;4892155;29;20056;-79
2021/12/17 20:49:05;;;;;;;61.45;31.70;;;8.40;99.90;;;;;;4906536;29;20052;-79
2021/12/17 20:51:32;;;;;;;61.60;31.80;;;8.50;99.90;;;;;;4906716;29;20079;-80
2021/12/17 20:54:00;;;;;;;63.50;30.42;;;8.50;99.90;;;;;;4905899;29;20056;-81
2021/12/17 20:56:27;;;;;;;58.75;30.20;;;8.50;99.90;;;;;;4907998;29;20056;-80
2021/12/17 20:58:54;;;;;;;52.65;28.10;;;8.50;99.90;;;;;;4906776;29;20044;-79
2021/12/17 21:01:22;;;;;;;52.78;28.27;;;8.50;99.90;;;;;;4912388;28;20055;-79
2021/12/17 21:03:49;;;;;;;54.03;27.55;;;8.40;99.90;;;;;;4925823;28;20060;-80
2021/12/17 21:06:16;;;;;;;51.55;28.50;;;8.40;99.90;;;;;;4923254;29;20051;-80
2021/12/17 21:08:45;;;;;;;50.28;26.38;;;8.50;99.90;;;;;;4928597;29;20088;-81
2021/12/17 21:11:12;;;;;;;52.40;28.40;;;8.50;99.90;;;;;;4924955;28;20056;-81
2021/12/17 21:13:48;;;;;;;49.40;25.73;;;8.40;99.90;;;;;;4926386;28;20051;-79
2021/12/17 21:16:15;;;;;;;51.42;24.88;;;8.50;99.90;;;;;;4924276;28;20568;-79
2021/12/17 21:18:42;;;;;;;51.47;26.10;;;8.40;99.90;;;;;;4914035;28;20398;-80
2021/12/17 21:21:09;;;;;;;50.13;24.42;;;8.50;99.90;;;;;;4917129;28;20047;-80
2021/12/17 21:23:36;;;;;;;47.72;25.80;;;8.50;99.90;;;;;;4917226;28;20532;-79
2021/12/17 21:26:03;;;;;;;48.95;24.67;;;8.40;99.90;;;;;;4912857;29;20080;-80
2021/12/17 21:28:30;;;;;;;46.38;24.55;;;8.50;99.90;;;;;;4918454;28;20345;-80
2021/12/17 21:30:56;;;;;;;43.65;23.38;;;8.50;99.90;;;;;;4928373;28;20079;-79
2021/12/17 21:33:32;;;;;;;47.13;26.40;;;8.50;99.90;;;;;;4927842;28;20062;-80
2021/12/17 21:36:02;;;;;;;47.97;25.98;;;8.50;99.90;;;;;;4926625;29;20123;-79
2021/12/17 21:38:29;;;;;;;46.67;24.35;;;8.50;99.90;;;;;;4928610;28;20051;-79